PWSweather.com
Personal Weather Stations
Station Observations
COLASTNORT
Colastiné Norte, Santa FeAR 3000

Colastiné NorteSanta FeAR 3000

Lat: -31.63, Lon: -60.603

Elevation: 56

Station Type: Daza WH3104

http://www.estaciongralpaz.com.ar/colastine

Latest ConditionsUpdated 3:52:00 AM GMT-03:57 Sunday, Jul 23, 2017
Currently Today's Max Today's Min Today's Average
Temperature 60.3°F15.7°C 60.4°F15.8°C 59.5°F15.3°C 60.1°F15.6°C
Dew Point 49.7°F9.8°C 50.1°F10.1°C 49.2°F9.6°C 49.8°F9.9°C
Winds 5.8 mph NNE9.3 kmh NNE 14.8 mph NE23.8 kmh NE - 8.5 mph 13.7 kmh
Wind Gusts 18.9 mph30.4 kmh 20.6 mph33.2 kmh - -
Humidity 68% 70% 68% 69%
Pressure 29.72 in1006.4 mb 29.76 in1007.8 mb 29.71 in1006.1 mb -
Hour Temp Dew Point Humidity Winds Wind Gusts Pressure Precip Precip Rate Daily Precip Total
03:52 AM 60.3°F15.7°C 49.7°F9.8°C 68% 5.8 mph NNE9.3 kmh NNE 18.9 mph30.4 kmh 29.72 in1006.4 mb 0.00 in0.0 mm 0.00 in0.0 mm 0.00 in0.0 mm
03:51 AM 60.3°F15.7°C 49.7°F9.8°C 68% 4.9 mph NNE7.9 kmh NNE 18.9 mph30.4 kmh 29.71 in1006.1 mb 0.00 in0.0 mm 0.00 in0.0 mm 0.00 in0.0 mm
03:50 AM 60.3°F15.7°C 49.7°F9.8°C 68% 7.9 mph NNE12.7 kmh NNE 18.9 mph30.4 kmh 29.72 in1006.4 mb 0.00 in0.0 mm 0.00 in0.0 mm 0.00 in0.0 mm
03:49 AM 60.3°F15.7°C 49.7°F9.8°C 68% 5.8 mph NNE9.3 kmh NNE 18.9 mph30.4 kmh 29.72 in1006.4 mb 0.00 in0.0 mm 0.00 in0.0 mm 0.00 in0.0 mm
03:48 AM 60.3°F15.7°C 49.7°F9.8°C 68% 4.9 mph NNE7.9 kmh NNE 18.9 mph30.4 kmh 29.72 in1006.4 mb 0.00 in0.0 mm 0.00 in0.0 mm 0.00 in0.0 mm
03:47 AM 60.3°F15.7°C 49.7°F9.8°C 68% 9.0 mph NNE14.5 kmh NNE 18.9 mph30.4 kmh 29.72 in1006.4 mb 0.00 in0.0 mm 0.00 in0.0 mm 0.00 in0.0 mm
03:46 AM 60.3°F15.7°C 49.7°F9.8°C 68% 4.1 mph NNE6.6 kmh NNE 17.7 mph28.5 kmh 29.71 in1006.1 mb 0.00 in0.0 mm 0.00 in0.0 mm 0.00 in0.0 mm
03:45 AM 60.3°F15.7°C 49.7°F9.8°C 68% 7.0 mph NNE11.3 kmh NNE 17.7 mph28.5 kmh 29.72 in1006.4 mb 0.00 in0.0 mm 0.00 in0.0 mm 0.00 in0.0 mm
03:44 AM 60.3°F15.7°C 49.7°F9.8°C 68% 9.9 mph N15.9 kmh N 17.7 mph28.5 kmh 29.72 in1006.4 mb 0.00 in0.0 mm 0.00 in0.0 mm 0.00 in0.0 mm
03:43 AM 60.3°F15.7°C 49.7°F9.8°C 68% 9.9 mph N15.9 kmh N 17.7 mph28.5 kmh 29.72 in1006.4 mb 0.00 in0.0 mm 0.00 in0.0 mm 0.00 in0.0 mm
03:42 AM 60.3°F15.7°C 49.7°F9.8°C 68% 7.9 mph N12.7 kmh N 15.7 mph25.3 kmh 29.71 in1006.1 mb 0.00 in0.0 mm 0.00 in0.0 mm 0.00 in0.0 mm
03:41 AM 60.3°F15.7°C 49.7°F9.8°C 68% 9.0 mph N14.5 kmh N 15.7 mph25.3 kmh 29.72 in1006.4 mb 0.00 in0.0 mm 0.00 in0.0 mm 0.00 in0.0 mm
03:40 AM 60.3°F15.7°C 49.7°F9.8°C 68% 5.8 mph N9.3 kmh N 15.7 mph25.3 kmh 29.72 in1006.4 mb 0.00 in0.0 mm 0.00 in0.0 mm 0.00 in0.0 mm
03:39 AM 60.3°F15.7°C 49.7°F9.8°C 68% 7.9 mph N12.7 kmh N 16.9 mph27.2 kmh 29.71 in1006.1 mb 0.00 in0.0 mm 0.00 in0.0 mm 0.00 in0.0 mm
03:38 AM 60.3°F15.7°C 49.7°F9.8°C 68% 7.9 mph N12.7 kmh N 16.9 mph27.2 kmh 29.72 in1006.4 mb 0.00 in0.0 mm 0.00 in0.0 mm 0.00 in0.0 mm
03:37 AM 60.3°F15.7°C 50.1°F10.1°C 69% 12.8 mph N20.6 kmh N 16.9 mph27.2 kmh 29.72 in1006.4 mb 0.00 in0.0 mm 0.00 in0.0 mm 0.00 in0.0 mm
03:36 AM 60.3°F15.7°C 49.7°F9.8°C 68% 7.9 mph N12.7 kmh N 16.9 mph27.2 kmh 29.72 in1006.4 mb 0.00 in0.0 mm 0.00 in0.0 mm 0.00 in0.0 mm
03:35 AM 60.3°F15.7°C 49.7°F9.8°C 68% 4.9 mph N7.9 kmh N 16.9 mph27.2 kmh 29.72 in1006.4 mb 0.00 in0.0 mm 0.00 in0.0 mm 0.00 in0.0 mm
03:34 AM 60.3°F15.7°C 49.7°F9.8°C 68% 9.0 mph NNE14.5 kmh NNE 16.9 mph27.2 kmh 29.72 in1006.4 mb 0.00 in0.0 mm 0.00 in0.0 mm 0.00 in0.0 mm
03:33 AM 60.3°F15.7°C 49.7°F9.8°C 68% 7.0 mph NNE11.3 kmh NNE 16.9 mph27.2 kmh 29.72 in1006.4 mb 0.00 in0.0 mm 0.00 in0.0 mm 0.00 in0.0 mm
03:32 AM 60.3°F15.7°C 49.7°F9.8°C 68% 4.1 mph NNE6.6 kmh NNE 16.9 mph27.2 kmh 29.72 in1006.4 mb 0.00 in0.0 mm 0.00 in0.0 mm 0.00 in0.0 mm
03:31 AM 60.3°F15.7°C 49.7°F9.8°C 68% 7.9 mph NNE12.7 kmh NNE 16.9 mph27.2 kmh 29.72 in1006.4 mb 0.00 in0.0 mm 0.00 in0.0 mm 0.00 in0.0 mm
03:30 AM 60.3°F15.7°C 49.7°F9.8°C 68% 12.8 mph NNE20.6 kmh NNE 16.9 mph27.2 kmh 29.72 in1006.4 mb 0.00 in0.0 mm 0.00 in0.0 mm 0.00 in0.0 mm
03:29 AM 60.3°F15.7°C 49.7°F9.8°C 68% 5.8 mph NNE9.3 kmh NNE 16.9 mph27.2 kmh 29.72 in1006.4 mb 0.00 in0.0 mm 0.00 in0.0 mm 0.00 in0.0 mm
03:28 AM 60.3°F15.7°C 49.7°F9.8°C 68% 5.8 mph NNE9.3 kmh NNE 16.9 mph27.2 kmh 29.72 in1006.4 mb 0.00 in0.0 mm 0.00 in0.0 mm 0.00 in0.0 mm
03:27 AM 60.3°F15.7°C 49.7°F9.8°C 68% 9.0 mph NNE14.5 kmh NNE 16.9 mph27.2 kmh 29.72 in1006.4 mb 0.00 in0.0 mm 0.00 in0.0 mm 0.00 in0.0 mm
03:26 AM 60.3°F15.7°C 49.7°F9.8°C 68% 9.0 mph NNE14.5 kmh NNE 16.9 mph27.2 kmh 29.72 in1006.4 mb 0.00 in0.0 mm 0.00 in0.0 mm 0.00 in0.0 mm
03:25 AM 60.3°F15.7°C 49.7°F9.8°C 68% 9.0 mph NE14.5 kmh NE 18.9 mph30.4 kmh 29.72 in1006.4 mb 0.00 in0.0 mm 0.00 in0.0 mm 0.00 in0.0 mm
03:24 AM 60.3°F15.7°C 49.7°F9.8°C 68% 9.0 mph NE14.5 kmh NE 18.9 mph30.4 kmh 29.72 in1006.4 mb 0.00 in0.0 mm 0.00 in0.0 mm 0.00 in0.0 mm
03:23 AM 60.3°F15.7°C 49.7°F9.8°C 68% 7.0 mph NE11.3 kmh NE 18.9 mph30.4 kmh 29.72 in1006.4 mb 0.00 in0.0 mm 0.00 in0.0 mm 0.00 in0.0 mm
03:22 AM 60.3°F15.7°C 49.7°F9.8°C 68% 10.8 mph NNE17.4 kmh NNE 18.9 mph30.4 kmh 29.72 in1006.4 mb 0.00 in0.0 mm 0.00 in0.0 mm 0.00 in0.0 mm
03:21 AM 60.3°F15.7°C 49.7°F9.8°C 68% 9.0 mph NNE14.5 kmh NNE 18.9 mph30.4 kmh 29.72 in1006.4 mb 0.00 in0.0 mm 0.00 in0.0 mm 0.00 in0.0 mm
03:20 AM 60.3°F15.7°C 49.7°F9.8°C 68% 9.0 mph NNE14.5 kmh NNE 18.9 mph30.4 kmh 29.72 in1006.4 mb 0.00 in0.0 mm 0.00 in0.0 mm 0.00 in0.0 mm
03:19 AM 60.3°F15.7°C 49.7°F9.8°C 68% 7.0 mph N11.3 kmh N 19.8 mph31.9 kmh 29.72 in1006.4 mb 0.00 in0.0 mm 0.00 in0.0 mm 0.00 in0.0 mm
03:18 AM 60.4°F15.8°C 49.8°F9.9°C 68% 5.8 mph N9.3 kmh N 19.8 mph31.9 kmh 29.72 in1006.4 mb 0.00 in0.0 mm 0.00 in0.0 mm 0.00 in0.0 mm
03:17 AM 60.4°F15.8°C 49.8°F9.9°C 68% 5.8 mph N9.3 kmh N 19.8 mph31.9 kmh 29.72 in1006.4 mb 0.00 in0.0 mm 0.00 in0.0 mm 0.00 in0.0 mm
03:16 AM 60.4°F15.8°C 49.8°F9.9°C 68% 9.0 mph N14.5 kmh N 19.8 mph31.9 kmh 29.72 in1006.4 mb 0.00 in0.0 mm 0.00 in0.0 mm 0.00 in0.0 mm
03:15 AM 60.4°F15.8°C 49.8°F9.9°C 68% 11.9 mph N19.2 kmh N 19.8 mph31.9 kmh 29.72 in1006.4 mb 0.00 in0.0 mm 0.00 in0.0 mm 0.00 in0.0 mm
03:14 AM 60.4°F15.8°C 49.8°F9.9°C 68% 7.9 mph N12.7 kmh N 19.8 mph31.9 kmh 29.72 in1006.4 mb 0.00 in0.0 mm 0.00 in0.0 mm 0.00 in0.0 mm
03:13 AM 60.4°F15.8°C 49.8°F9.9°C 68% 11.9 mph N19.2 kmh N 19.8 mph31.9 kmh 29.72 in1006.4 mb 0.00 in0.0 mm 0.00 in0.0 mm 0.00 in0.0 mm
03:12 AM 60.4°F15.8°C 49.8°F9.9°C 68% 9.9 mph N15.9 kmh N 19.8 mph31.9 kmh 29.72 in1006.4 mb 0.00 in0.0 mm 0.00 in0.0 mm 0.00 in0.0 mm
03:11 AM 60.3°F15.7°C 49.7°F9.8°C 68% 12.8 mph N20.6 kmh N 19.8 mph31.9 kmh 29.72 in1006.4 mb 0.00 in0.0 mm 0.00 in0.0 mm 0.00 in0.0 mm
03:10 AM 60.3°F15.7°C 49.7°F9.8°C 68% 14.8 mph N23.8 kmh N 19.8 mph31.9 kmh 29.72 in1006.4 mb 0.00 in0.0 mm 0.00 in0.0 mm 0.00 in0.0 mm
03:09 AM 60.3°F15.7°C 49.7°F9.8°C 68% 14.8 mph N23.8 kmh N 18.9 mph30.4 kmh 29.72 in1006.4 mb 0.00 in0.0 mm 0.00 in0.0 mm 0.00 in0.0 mm
03:08 AM 60.3°F15.7°C 49.7°F9.8°C 68% 7.0 mph NNE11.3 kmh NNE 20.6 mph33.2 kmh 29.72 in1006.4 mb 0.00 in0.0 mm 0.00 in0.0 mm 0.00 in0.0 mm
03:07 AM 60.3°F15.7°C 49.7°F9.8°C 68% 7.0 mph NNE11.3 kmh NNE 20.6 mph33.2 kmh 29.72 in1006.4 mb 0.00 in0.0 mm 0.00 in0.0 mm 0.00 in0.0 mm
03:06 AM 60.3°F15.7°C 49.7°F9.8°C 68% 7.0 mph NNE11.3 kmh NNE 20.6 mph33.2 kmh 29.72 in1006.4 mb 0.00 in0.0 mm 0.00 in0.0 mm 0.00 in0.0 mm
03:05 AM 60.3°F15.7°C 49.7°F9.8°C 68% 7.0 mph NNE11.3 kmh NNE 20.6 mph33.2 kmh 29.72 in1006.4 mb 0.00 in0.0 mm 0.00 in0.0 mm 0.00 in0.0 mm
03:04 AM 60.3°F15.7°C 49.7°F9.8°C 68% 7.0 mph NNE11.3 kmh NNE 20.6 mph33.2 kmh 29.72 in1006.4 mb 0.00 in0.0 mm 0.00 in0.0 mm 0.00 in0.0 mm
03:03 AM 60.3°F15.7°C 49.7°F9.8°C 68% 7.0 mph NNE11.3 kmh NNE 20.6 mph33.2 kmh 29.72 in1006.4 mb 0.00 in0.0 mm 0.00 in0.0 mm 0.00 in0.0 mm
03:02 AM 60.3°F15.7°C 49.7°F9.8°C 68% 7.0 mph NE11.3 kmh NE 20.6 mph33.2 kmh 29.72 in1006.4 mb 0.00 in0.0 mm 0.00 in0.0 mm 0.00 in0.0 mm
03:01 AM 60.3°F15.7°C 49.7°F9.8°C 68% 5.8 mph NE9.3 kmh NE 20.6 mph33.2 kmh 29.72 in1006.4 mb 0.00 in0.0 mm 0.00 in0.0 mm 0.00 in0.0 mm
03:00 AM 60.3°F15.7°C 49.7°F9.8°C 68% 9.0 mph NE14.5 kmh NE 20.6 mph33.2 kmh 29.72 in1006.4 mb 0.00 in0.0 mm 0.00 in0.0 mm 0.00 in0.0 mm
02:59 AM 60.3°F15.7°C 49.7°F9.8°C 68% 9.0 mph NE14.5 kmh NE 20.6 mph33.2 kmh 29.72 in1006.4 mb 0.00 in0.0 mm 0.00 in0.0 mm 0.00 in0.0 mm
02:58 AM 60.3°F15.7°C 49.7°F9.8°C 68% 4.9 mph NE7.9 kmh NE 17.7 mph28.5 kmh 29.72 in1006.4 mb 0.00 in0.0 mm 0.00 in0.0 mm 0.00 in0.0 mm
02:57 AM 60.3°F15.7°C 49.7°F9.8°C 68% 7.9 mph NE12.7 kmh NE 17.7 mph28.5 kmh 29.72 in1006.4 mb 0.00 in0.0 mm 0.00 in0.0 mm 0.00 in0.0 mm
02:56 AM 60.3°F15.7°C 49.7°F9.8°C 68% 9.0 mph NE14.5 kmh NE 17.7 mph28.5 kmh 29.72 in1006.4 mb 0.00 in0.0 mm 0.00 in0.0 mm 0.00 in0.0 mm
02:55 AM 60.3°F15.7°C 49.7°F9.8°C 68% 9.0 mph NE14.5 kmh NE 17.7 mph28.5 kmh 29.72 in1006.4 mb 0.00 in0.0 mm 0.00 in0.0 mm 0.00 in0.0 mm
02:54 AM 60.3°F15.7°C 49.7°F9.8°C 68% 4.9 mph NE7.9 kmh NE 17.7 mph28.5 kmh 29.72 in1006.4 mb 0.00 in0.0 mm 0.00 in0.0 mm 0.00 in0.0 mm
02:53 AM 60.3°F15.7°C 49.7°F9.8°C 68% 9.9 mph NE15.9 kmh NE 17.7 mph28.5 kmh 29.72 in1006.4 mb 0.00 in0.0 mm 0.00 in0.0 mm 0.00 in0.0 mm
02:52 AM 60.3°F15.7°C 49.7°F9.8°C 68% 7.0 mph NE11.3 kmh NE 17.7 mph28.5 kmh 29.72 in1006.4 mb 0.00 in0.0 mm 0.00 in0.0 mm 0.00 in0.0 mm
02:51 AM 60.3°F15.7°C 49.7°F9.8°C 68% 7.0 mph NNE11.3 kmh NNE 17.7 mph28.5 kmh 29.72 in1006.4 mb 0.00 in0.0 mm 0.00 in0.0 mm 0.00 in0.0 mm
02:50 AM 60.3°F15.7°C 49.7°F9.8°C 68% 9.0 mph NNE14.5 kmh NNE 17.7 mph28.5 kmh 29.72 in1006.4 mb 0.00 in0.0 mm 0.00 in0.0 mm 0.00 in0.0 mm
02:49 AM 60.3°F15.7°C 49.7°F9.8°C 68% 7.9 mph NNE12.7 kmh NNE 17.7 mph28.5 kmh 29.72 in1006.4 mb 0.00 in0.0 mm 0.00 in0.0 mm 0.00 in0.0 mm
02:48 AM 60.3°F15.7°C 50.1°F10.1°C 69% 11.9 mph NNE19.2 kmh NNE 17.7 mph28.5 kmh 29.73 in1006.8 mb 0.00 in0.0 mm 0.00 in0.0 mm 0.00 in0.0 mm
02:47 AM 60.3°F15.7°C 50.1°F10.1°C 69% 7.9 mph NNE12.7 kmh NNE 17.7 mph28.5 kmh 29.72 in1006.4 mb 0.00 in0.0 mm 0.00 in0.0 mm 0.00 in0.0 mm
02:46 AM 60.3°F15.7°C 50.1°F10.1°C 69% 14.8 mph NNE23.8 kmh NNE 17.7 mph28.5 kmh 29.73 in1006.8 mb 0.00 in0.0 mm 0.00 in0.0 mm 0.00 in0.0 mm
02:45 AM 60.3°F15.7°C 50.1°F10.1°C 69% 9.0 mph NNE14.5 kmh NNE 16.9 mph27.2 kmh 29.72 in1006.4 mb 0.00 in0.0 mm 0.00 in0.0 mm 0.00 in0.0 mm
02:44 AM 60.3°F15.7°C 50.1°F10.1°C 69% 7.9 mph NNE12.7 kmh NNE 16.9 mph27.2 kmh 29.73 in1006.8 mb 0.00 in0.0 mm 0.00 in0.0 mm 0.00 in0.0 mm
02:43 AM 60.3°F15.7°C 50.1°F10.1°C 69% 7.9 mph NNE12.7 kmh NNE 16.9 mph27.2 kmh 29.73 in1006.8 mb 0.00 in0.0 mm 0.00 in0.0 mm 0.00 in0.0 mm
02:42 AM 60.3°F15.7°C 50.1°F10.1°C 69% 7.0 mph NNE11.3 kmh NNE 16.9 mph27.2 kmh 29.73 in1006.8 mb 0.00 in0.0 mm 0.00 in0.0 mm 0.00 in0.0 mm
02:41 AM 60.3°F15.7°C 50.1°F10.1°C 69% 9.0 mph NNE14.5 kmh NNE 16.9 mph27.2 kmh 29.73 in1006.8 mb 0.00 in0.0 mm 0.00 in0.0 mm 0.00 in0.0 mm
02:40 AM 60.1°F15.6°C 49.9°F9.9°C 69% 9.9 mph NE15.9 kmh NE 16.9 mph27.2 kmh 29.73 in1006.8 mb 0.00 in0.0 mm 0.00 in0.0 mm 0.00 in0.0 mm
02:39 AM 60.1°F15.6°C 49.9°F9.9°C 69% 7.0 mph NNE11.3 kmh NNE 14.8 mph23.8 kmh 29.72 in1006.4 mb 0.00 in0.0 mm 0.00 in0.0 mm 0.00 in0.0 mm
02:38 AM 60.1°F15.6°C 49.9°F9.9°C 69% 7.9 mph NNE12.7 kmh NNE 14.8 mph23.8 kmh 29.73 in1006.8 mb 0.00 in0.0 mm 0.00 in0.0 mm 0.00 in0.0 mm
02:37 AM 60.1°F15.6°C 49.9°F9.9°C 69% 7.9 mph NNE12.7 kmh NNE 14.8 mph23.8 kmh 29.73 in1006.8 mb 0.00 in0.0 mm 0.00 in0.0 mm 0.00 in0.0 mm
02:36 AM 60.1°F15.6°C 49.9°F9.9°C 69% 9.0 mph NNE14.5 kmh NNE 14.8 mph23.8 kmh 29.73 in1006.8 mb 0.00 in0.0 mm 0.00 in0.0 mm 0.00 in0.0 mm
02:35 AM 60.1°F15.6°C 49.9°F9.9°C 69% 9.0 mph NNE14.5 kmh NNE 14.8 mph23.8 kmh 29.73 in1006.8 mb 0.00 in0.0 mm 0.00 in0.0 mm 0.00 in0.0 mm
02:34 AM 60.3°F15.7°C 49.7°F9.8°C 68% 4.9 mph NNE7.9 kmh NNE 14.8 mph23.8 kmh 29.73 in1006.8 mb 0.00 in0.0 mm 0.00 in0.0 mm 0.00 in0.0 mm
02:33 AM 60.3°F15.7°C 49.7°F9.8°C 68% 7.9 mph NNE12.7 kmh NNE 14.8 mph23.8 kmh 29.72 in1006.4 mb 0.00 in0.0 mm 0.00 in0.0 mm 0.00 in0.0 mm
02:32 AM 60.3°F15.7°C 49.7°F9.8°C 68% 9.0 mph NNE14.5 kmh NNE 16.9 mph27.2 kmh 29.73 in1006.8 mb 0.00 in0.0 mm 0.00 in0.0 mm 0.00 in0.0 mm
02:31 AM 60.3°F15.7°C 49.7°F9.8°C 68% 9.9 mph NNE15.9 kmh NNE 16.9 mph27.2 kmh 29.73 in1006.8 mb 0.00 in0.0 mm 0.00 in0.0 mm 0.00 in0.0 mm
02:30 AM 60.3°F15.7°C 49.7°F9.8°C 68% 7.9 mph NNE12.7 kmh NNE 16.9 mph27.2 kmh 29.73 in1006.8 mb 0.00 in0.0 mm 0.00 in0.0 mm 0.00 in0.0 mm
02:29 AM 60.3°F15.7°C 49.7°F9.8°C 68% 7.9 mph NNE12.7 kmh NNE 16.9 mph27.2 kmh 29.73 in1006.8 mb 0.00 in0.0 mm 0.00 in0.0 mm 0.00 in0.0 mm
02:28 AM 60.3°F15.7°C 49.7°F9.8°C 68% 7.9 mph NNE12.7 kmh NNE 16.9 mph27.2 kmh 29.73 in1006.8 mb 0.00 in0.0 mm 0.00 in0.0 mm 0.00 in0.0 mm
02:27 AM 60.3°F15.7°C 49.7°F9.8°C 68% 4.1 mph NNE6.6 kmh NNE 18.9 mph30.4 kmh 29.73 in1006.8 mb 0.00 in0.0 mm 0.00 in0.0 mm 0.00 in0.0 mm
02:26 AM 60.3°F15.7°C 49.7°F9.8°C 68% 7.0 mph NNE11.3 kmh NNE 18.9 mph30.4 kmh 29.73 in1006.8 mb 0.00 in0.0 mm 0.00 in0.0 mm 0.00 in0.0 mm
02:25 AM 60.4°F15.8°C 49.8°F9.9°C 68% 7.9 mph N12.7 kmh N 18.9 mph30.4 kmh 29.73 in1006.8 mb 0.00 in0.0 mm 0.00 in0.0 mm 0.00 in0.0 mm
02:24 AM 60.4°F15.8°C 49.8°F9.9°C 68% 5.8 mph N9.3 kmh N 18.9 mph30.4 kmh 29.73 in1006.8 mb 0.00 in0.0 mm 0.00 in0.0 mm 0.00 in0.0 mm
02:23 AM 60.3°F15.7°C 49.7°F9.8°C 68% 7.9 mph N12.7 kmh N 18.9 mph30.4 kmh 29.73 in1006.8 mb 0.00 in0.0 mm 0.00 in0.0 mm 0.00 in0.0 mm
02:22 AM 60.3°F15.7°C 49.7°F9.8°C 68% 9.9 mph N15.9 kmh N 18.9 mph30.4 kmh 29.73 in1006.8 mb 0.00 in0.0 mm 0.00 in0.0 mm 0.00 in0.0 mm
02:21 AM 60.3°F15.7°C 49.7°F9.8°C 68% 9.9 mph NNE15.9 kmh NNE 18.9 mph30.4 kmh 29.73 in1006.8 mb 0.00 in0.0 mm 0.00 in0.0 mm 0.00 in0.0 mm
02:20 AM 60.3°F15.7°C 49.7°F9.8°C 68% 9.0 mph NNE14.5 kmh NNE 18.9 mph30.4 kmh 29.73 in1006.8 mb 0.00 in0.0 mm 0.00 in0.0 mm 0.00 in0.0 mm
02:19 AM 60.3°F15.7°C 49.7°F9.8°C 68% 10.8 mph NNE17.4 kmh NNE 18.9 mph30.4 kmh 29.73 in1006.8 mb 0.00 in0.0 mm 0.00 in0.0 mm 0.00 in0.0 mm
02:18 AM 60.3°F15.7°C 49.7°F9.8°C 68% 12.8 mph NNE20.6 kmh NNE 18.9 mph30.4 kmh 29.73 in1006.8 mb 0.00 in0.0 mm 0.00 in0.0 mm 0.00 in0.0 mm
02:17 AM 60.3°F15.7°C 50.1°F10.1°C 69% 9.0 mph NNE14.5 kmh NNE 18.9 mph30.4 kmh 29.73 in1006.8 mb 0.00 in0.0 mm 0.00 in0.0 mm 0.00 in0.0 mm
02:16 AM 60.3°F15.7°C 50.1°F10.1°C 69% 10.8 mph NE17.4 kmh NE 18.9 mph30.4 kmh 29.73 in1006.8 mb 0.00 in0.0 mm 0.00 in0.0 mm 0.00 in0.0 mm
02:15 AM 60.3°F15.7°C 50.1°F10.1°C 69% 9.9 mph NE15.9 kmh NE 18.9 mph30.4 kmh 29.73 in1006.8 mb 0.00 in0.0 mm 0.00 in0.0 mm 0.00 in0.0 mm
02:14 AM 60.3°F15.7°C 50.1°F10.1°C 69% 10.8 mph NE17.4 kmh NE 16.9 mph27.2 kmh 29.73 in1006.8 mb 0.00 in0.0 mm 0.00 in0.0 mm 0.00 in0.0 mm
02:13 AM 60.3°F15.7°C 50.1°F10.1°C 69% 7.0 mph NE11.3 kmh NE 16.9 mph27.2 kmh 29.73 in1006.8 mb 0.00 in0.0 mm 0.00 in0.0 mm 0.00 in0.0 mm
02:12 AM 60.1°F15.6°C 49.9°F9.9°C 69% 9.0 mph NE14.5 kmh NE 19.8 mph31.9 kmh 29.73 in1006.8 mb 0.00 in0.0 mm 0.00 in0.0 mm 0.00 in0.0 mm
02:11 AM 60.3°F15.7°C 50.1°F10.1°C 69% 9.0 mph NE14.5 kmh NE 19.8 mph31.9 kmh 29.73 in1006.8 mb 0.00 in0.0 mm 0.00 in0.0 mm 0.00 in0.0 mm
02:10 AM 60.3°F15.7°C 50.1°F10.1°C 69% 4.9 mph NE7.9 kmh NE 19.8 mph31.9 kmh 29.73 in1006.8 mb 0.00 in0.0 mm 0.00 in0.0 mm 0.00 in0.0 mm
02:09 AM 60.3°F15.7°C 50.1°F10.1°C 69% 5.8 mph NE9.3 kmh NE 19.8 mph31.9 kmh 29.73 in1006.8 mb 0.00 in0.0 mm 0.00 in0.0 mm 0.00 in0.0 mm
02:08 AM 60.3°F15.7°C 50.1°F10.1°C 69% 7.9 mph NE12.7 kmh NE 19.8 mph31.9 kmh 29.73 in1006.8 mb 0.00 in0.0 mm 0.00 in0.0 mm 0.00 in0.0 mm
02:07 AM 60.3°F15.7°C 50.1°F10.1°C 69% 9.9 mph NE15.9 kmh NE 19.8 mph31.9 kmh 29.73 in1006.8 mb 0.00 in0.0 mm 0.00 in0.0 mm 0.00 in0.0 mm
02:06 AM 60.3°F15.7°C 50.1°F10.1°C 69% 7.9 mph NE12.7 kmh NE 19.8 mph31.9 kmh 29.73 in1006.8 mb 0.00 in0.0 mm 0.00 in0.0 mm 0.00 in0.0 mm
02:05 AM 60.3°F15.7°C 50.1°F10.1°C 69% 7.0 mph NE11.3 kmh NE 19.8 mph31.9 kmh 29.73 in1006.8 mb 0.00 in0.0 mm 0.00 in0.0 mm 0.00 in0.0 mm
02:04 AM 60.3°F15.7°C 50.1°F10.1°C 69% 9.0 mph NE14.5 kmh NE 19.8 mph31.9 kmh 29.73 in1006.8 mb 0.00 in0.0 mm 0.00 in0.0 mm 0.00 in0.0 mm
02:03 AM 60.3°F15.7°C 50.1°F10.1°C 69% 9.9 mph NNE15.9 kmh NNE 19.8 mph31.9 kmh 29.73 in1006.8 mb 0.00 in0.0 mm 0.00 in0.0 mm 0.00 in0.0 mm
02:02 AM 60.3°F15.7°C 50.1°F10.1°C 69% 14.0 mph NNE22.5 kmh NNE 19.8 mph31.9 kmh 29.73 in1006.8 mb 0.00 in0.0 mm 0.00 in0.0 mm 0.00 in0.0 mm
02:01 AM 60.1°F15.6°C 49.9°F9.9°C 69% 9.9 mph NNE15.9 kmh NNE 18.9 mph30.4 kmh 29.73 in1006.8 mb 0.00 in0.0 mm 0.00 in0.0 mm 0.00 in0.0 mm
02:00 AM 60.1°F15.6°C 49.9°F9.9°C 69% 12.8 mph NE20.6 kmh NE 15.7 mph25.3 kmh 29.73 in1006.8 mb 0.00 in0.0 mm 0.00 in0.0 mm 0.00 in0.0 mm
01:59 AM 60.1°F15.6°C 49.9°F9.9°C 69% 7.0 mph NE11.3 kmh NE 16.9 mph27.2 kmh 29.73 in1006.8 mb 0.00 in0.0 mm 0.00 in0.0 mm 0.00 in0.0 mm
01:58 AM 60.1°F15.6°C 49.9°F9.9°C 69% 10.8 mph NE17.4 kmh NE 16.9 mph27.2 kmh 29.73 in1006.8 mb 0.00 in0.0 mm 0.00 in0.0 mm 0.00 in0.0 mm
01:57 AM 60.1°F15.6°C 49.9°F9.9°C 69% 9.9 mph NE15.9 kmh NE 16.9 mph27.2 kmh 29.73 in1006.8 mb 0.00 in0.0 mm 0.00 in0.0 mm 0.00 in0.0 mm
01:56 AM 60.1°F15.6°C 49.9°F9.9°C 69% 7.0 mph NNE11.3 kmh NNE 16.9 mph27.2 kmh 29.73 in1006.8 mb 0.00 in0.0 mm 0.00 in0.0 mm 0.00 in0.0 mm
01:55 AM 60.1°F15.6°C 49.9°F9.9°C 69% 9.0 mph NNE14.5 kmh NNE 16.9 mph27.2 kmh 29.73 in1006.8 mb 0.00 in0.0 mm 0.00 in0.0 mm 0.00 in0.0 mm
01:54 AM 60.1°F15.6°C 49.9°F9.9°C 69% 9.0 mph NNE14.5 kmh NNE 17.7 mph28.5 kmh 29.73 in1006.8 mb 0.00 in0.0 mm 0.00 in0.0 mm 0.00 in0.0 mm
01:53 AM 60.1°F15.6°C 49.9°F9.9°C 69% 9.0 mph NE14.5 kmh NE 17.7 mph28.5 kmh 29.73 in1006.8 mb 0.00 in0.0 mm 0.00 in0.0 mm 0.00 in0.0 mm
01:52 AM 60.1°F15.6°C 49.9°F9.9°C 69% 7.0 mph NE11.3 kmh NE 17.7 mph28.5 kmh 29.73 in1006.8 mb 0.00 in0.0 mm 0.00 in0.0 mm 0.00 in0.0 mm
01:51 AM 60.1°F15.6°C 49.9°F9.9°C 69% 10.8 mph NE17.4 kmh NE 17.7 mph28.5 kmh 29.73 in1006.8 mb 0.00 in0.0 mm 0.00 in0.0 mm 0.00 in0.0 mm
01:50 AM 60.1°F15.6°C 49.5°F9.7°C 68% 9.0 mph NE14.5 kmh NE 17.7 mph28.5 kmh 29.73 in1006.8 mb 0.00 in0.0 mm 0.00 in0.0 mm 0.00 in0.0 mm
01:49 AM 60.3°F15.7°C 49.7°F9.8°C 68% 4.9 mph NE7.9 kmh NE 17.7 mph28.5 kmh 29.73 in1006.8 mb 0.00 in0.0 mm 0.00 in0.0 mm 0.00 in0.0 mm
01:48 AM 60.3°F15.7°C 49.7°F9.8°C 68% 10.8 mph NE17.4 kmh NE 17.7 mph28.5 kmh 29.74 in1007.1 mb 0.00 in0.0 mm 0.00 in0.0 mm 0.00 in0.0 mm
01:47 AM 60.3°F15.7°C 49.7°F9.8°C 68% 9.0 mph NE14.5 kmh NE 17.7 mph28.5 kmh 29.73 in1006.8 mb 0.00 in0.0 mm 0.00 in0.0 mm 0.00 in0.0 mm
01:46 AM 60.3°F15.7°C 49.7°F9.8°C 68% 9.0 mph NE14.5 kmh NE 17.7 mph28.5 kmh 29.74 in1007.1 mb 0.00 in0.0 mm 0.00 in0.0 mm 0.00 in0.0 mm
01:45 AM 60.3°F15.7°C 49.7°F9.8°C 68% 9.9 mph NE15.9 kmh NE 17.7 mph28.5 kmh 29.74 in1007.1 mb 0.00 in0.0 mm 0.00 in0.0 mm 0.00 in0.0 mm
01:44 AM 60.3°F15.7°C 49.7°F9.8°C 68% 14.8 mph NE23.8 kmh NE 17.7 mph28.5 kmh 29.73 in1006.8 mb 0.00 in0.0 mm 0.00 in0.0 mm 0.00 in0.0 mm
01:43 AM 60.3°F15.7°C 49.7°F9.8°C 68% 9.0 mph NE14.5 kmh NE 14.8 mph23.8 kmh 29.73 in1006.8 mb 0.00 in0.0 mm 0.00 in0.0 mm 0.00 in0.0 mm
01:42 AM 60.3°F15.7°C 49.7°F9.8°C 68% 7.9 mph NE12.7 kmh NE 14.8 mph23.8 kmh 29.73 in1006.8 mb 0.00 in0.0 mm 0.00 in0.0 mm 0.00 in0.0 mm
01:41 AM 60.3°F15.7°C 49.7°F9.8°C 68% 9.9 mph NNE15.9 kmh NNE 14.8 mph23.8 kmh 29.74 in1007.1 mb 0.00 in0.0 mm 0.00 in0.0 mm 0.00 in0.0 mm
01:40 AM 60.3°F15.7°C 49.7°F9.8°C 68% 7.9 mph NE12.7 kmh NE 14.8 mph23.8 kmh 29.73 in1006.8 mb 0.00 in0.0 mm 0.00 in0.0 mm 0.00 in0.0 mm
01:39 AM 60.3°F15.7°C 49.7°F9.8°C 68% 9.9 mph NE15.9 kmh NE 15.7 mph25.3 kmh 29.74 in1007.1 mb 0.00 in0.0 mm 0.00 in0.0 mm 0.00 in0.0 mm
01:38 AM 60.3°F15.7°C 49.7°F9.8°C 68% 9.9 mph NNE15.9 kmh NNE 15.7 mph25.3 kmh 29.74 in1007.1 mb 0.00 in0.0 mm 0.00 in0.0 mm 0.00 in0.0 mm
01:37 AM 60.3°F15.7°C 49.7°F9.8°C 68% 9.9 mph NNE15.9 kmh NNE 15.7 mph25.3 kmh 29.74 in1007.1 mb 0.00 in0.0 mm 0.00 in0.0 mm 0.00 in0.0 mm
01:36 AM 60.3°F15.7°C 49.7°F9.8°C 68% 9.9 mph NNE15.9 kmh NNE 15.7 mph25.3 kmh 29.74 in1007.1 mb 0.00 in0.0 mm 0.00 in0.0 mm 0.00 in0.0 mm
01:35 AM 60.3°F15.7°C 49.7°F9.8°C 68% 9.9 mph NNE15.9 kmh NNE 16.9 mph27.2 kmh 29.74 in1007.1 mb 0.00 in0.0 mm 0.00 in0.0 mm 0.00 in0.0 mm
01:34 AM 60.3°F15.7°C 49.7°F9.8°C 68% 7.0 mph NE11.3 kmh NE 16.9 mph27.2 kmh 29.74 in1007.1 mb 0.00 in0.0 mm 0.00 in0.0 mm 0.00 in0.0 mm
01:33 AM 60.3°F15.7°C 49.7°F9.8°C 68% 7.9 mph NE12.7 kmh NE 16.9 mph27.2 kmh 29.74 in1007.1 mb 0.00 in0.0 mm 0.00 in0.0 mm 0.00 in0.0 mm
01:32 AM 60.3°F15.7°C 49.7°F9.8°C 68% 7.0 mph NE11.3 kmh NE 16.9 mph27.2 kmh 29.74 in1007.1 mb 0.00 in0.0 mm 0.00 in0.0 mm 0.00 in0.0 mm
01:31 AM 60.3°F15.7°C 49.7°F9.8°C 68% 9.0 mph NE14.5 kmh NE 16.9 mph27.2 kmh 29.74 in1007.1 mb 0.00 in0.0 mm 0.00 in0.0 mm 0.00 in0.0 mm
01:30 AM 60.3°F15.7°C 49.7°F9.8°C 68% 9.0 mph NNE14.5 kmh NNE 16.9 mph27.2 kmh 29.74 in1007.1 mb 0.00 in0.0 mm 0.00 in0.0 mm 0.00 in0.0 mm
01:29 AM 60.3°F15.7°C 49.7°F9.8°C 68% 9.0 mph NNE14.5 kmh NNE 16.9 mph27.2 kmh 29.74 in1007.1 mb 0.00 in0.0 mm 0.00 in0.0 mm 0.00 in0.0 mm
01:28 AM 60.3°F15.7°C 50.1°F10.1°C 69% 9.0 mph NNE14.5 kmh NNE 16.9 mph27.2 kmh 29.74 in1007.1 mb 0.00 in0.0 mm 0.00 in0.0 mm 0.00 in0.0 mm
01:27 AM 60.3°F15.7°C 50.1°F10.1°C 69% 5.8 mph NNE9.3 kmh NNE 16.9 mph27.2 kmh 29.74 in1007.1 mb 0.00 in0.0 mm 0.00 in0.0 mm 0.00 in0.0 mm
01:26 AM 60.3°F15.7°C 50.1°F10.1°C 69% 7.0 mph NNE11.3 kmh NNE 16.9 mph27.2 kmh 29.74 in1007.1 mb 0.00 in0.0 mm 0.00 in0.0 mm 0.00 in0.0 mm
01:25 AM 60.1°F15.6°C 49.9°F9.9°C 69% 9.0 mph NNE14.5 kmh NNE 15.7 mph25.3 kmh 29.74 in1007.1 mb 0.00 in0.0 mm 0.00 in0.0 mm 0.00 in0.0 mm
01:24 AM 60.1°F15.6°C 49.9°F9.9°C 69% 9.9 mph NNE15.9 kmh NNE 15.7 mph25.3 kmh 29.74 in1007.1 mb 0.00 in0.0 mm 0.00 in0.0 mm 0.00 in0.0 mm
01:23 AM 60.3°F15.7°C 49.7°F9.8°C 68% 7.0 mph NNE11.3 kmh NNE 15.7 mph25.3 kmh 29.74 in1007.1 mb 0.00 in0.0 mm 0.00 in0.0 mm 0.00 in0.0 mm
01:22 AM 60.3°F15.7°C 49.7°F9.8°C 68% 4.9 mph NNE7.9 kmh NNE 15.7 mph25.3 kmh 29.75 in1007.5 mb 0.00 in0.0 mm 0.00 in0.0 mm 0.00 in0.0 mm
01:21 AM 60.3°F15.7°C 49.7°F9.8°C 68% 9.0 mph NNE14.5 kmh NNE 15.7 mph25.3 kmh 29.74 in1007.1 mb 0.00 in0.0 mm 0.00 in0.0 mm 0.00 in0.0 mm
01:20 AM 60.3°F15.7°C 49.7°F9.8°C 68% 9.0 mph NNE14.5 kmh NNE 15.7 mph25.3 kmh 29.74 in1007.1 mb 0.00 in0.0 mm 0.00 in0.0 mm 0.00 in0.0 mm
01:19 AM 60.3°F15.7°C 50.1°F10.1°C 69% 7.0 mph NNE11.3 kmh NNE 15.7 mph25.3 kmh 29.74 in1007.1 mb 0.00 in0.0 mm 0.00 in0.0 mm 0.00 in0.0 mm
01:18 AM 60.3°F15.7°C 50.1°F10.1°C 69% 9.0 mph NNE14.5 kmh NNE 15.7 mph25.3 kmh 29.75 in1007.5 mb 0.00 in0.0 mm 0.00 in0.0 mm 0.00 in0.0 mm
01:17 AM 60.1°F15.6°C 49.9°F9.9°C 69% 9.9 mph NNE15.9 kmh NNE 15.7 mph25.3 kmh 29.75 in1007.5 mb 0.00 in0.0 mm 0.00 in0.0 mm 0.00 in0.0 mm
01:16 AM 60.1°F15.6°C 49.9°F9.9°C 69% 5.8 mph NNE9.3 kmh NNE 14.8 mph23.8 kmh 29.74 in1007.1 mb 0.00 in0.0 mm 0.00 in0.0 mm 0.00 in0.0 mm
01:15 AM 60.1°F15.6°C 49.9°F9.9°C 69% 9.9 mph NNE15.9 kmh NNE 14.8 mph23.8 kmh 29.75 in1007.5 mb 0.00 in0.0 mm 0.00 in0.0 mm 0.00 in0.0 mm
01:14 AM 60.1°F15.6°C 49.9°F9.9°C 69% 9.0 mph NNE14.5 kmh NNE 14.8 mph23.8 kmh 29.74 in1007.1 mb 0.00 in0.0 mm 0.00 in0.0 mm 0.00 in0.0 mm
01:13 AM 60.1°F15.6°C 49.9°F9.9°C 69% 7.0 mph NNE11.3 kmh NNE 15.7 mph25.3 kmh 29.74 in1007.1 mb 0.00 in0.0 mm 0.00 in0.0 mm 0.00 in0.0 mm
01:12 AM 60.1°F15.6°C 49.9°F9.9°C 69% 4.9 mph NNE7.9 kmh NNE 15.7 mph25.3 kmh 29.75 in1007.5 mb 0.00 in0.0 mm 0.00 in0.0 mm 0.00 in0.0 mm
01:11 AM 60.1°F15.6°C 49.5°F9.7°C 68% 4.1 mph NNE6.6 kmh NNE 17.7 mph28.5 kmh 29.75 in1007.5 mb 0.00 in0.0 mm 0.00 in0.0 mm 0.00 in0.0 mm
01:10 AM 60.3°F15.7°C 49.7°F9.8°C 68% 7.9 mph NNE12.7 kmh NNE 19.8 mph31.9 kmh 29.75 in1007.5 mb 0.00 in0.0 mm 0.00 in0.0 mm 0.00 in0.0 mm
01:09 AM 60.3°F15.7°C 49.7°F9.8°C 68% 9.0 mph NNE14.5 kmh NNE 19.8 mph31.9 kmh 29.75 in1007.5 mb 0.00 in0.0 mm 0.00 in0.0 mm 0.00 in0.0 mm
01:08 AM 60.3°F15.7°C 49.7°F9.8°C 68% 5.8 mph NNE9.3 kmh NNE 19.8 mph31.9 kmh 29.74 in1007.1 mb 0.00 in0.0 mm 0.00 in0.0 mm 0.00 in0.0 mm
01:07 AM 60.3°F15.7°C 49.7°F9.8°C 68% 10.8 mph NNE17.4 kmh NNE 19.8 mph31.9 kmh 29.74 in1007.1 mb 0.00 in0.0 mm 0.00 in0.0 mm 0.00 in0.0 mm
01:06 AM 60.3°F15.7°C 49.7°F9.8°C 68% 7.0 mph NNE11.3 kmh NNE 19.8 mph31.9 kmh 29.75 in1007.5 mb 0.00 in0.0 mm 0.00 in0.0 mm 0.00 in0.0 mm
01:05 AM 60.3°F15.7°C 49.7°F9.8°C 68% 9.9 mph NNE15.9 kmh NNE 19.8 mph31.9 kmh 29.75 in1007.5 mb 0.00 in0.0 mm 0.00 in0.0 mm 0.00 in0.0 mm
01:04 AM 60.3°F15.7°C 49.7°F9.8°C 68% 9.9 mph NNE15.9 kmh NNE 19.8 mph31.9 kmh 29.74 in1007.1 mb 0.00 in0.0 mm 0.00 in0.0 mm 0.00 in0.0 mm
01:03 AM 60.3°F15.7°C 49.7°F9.8°C 68% 7.0 mph N11.3 kmh N 19.8 mph31.9 kmh 29.74 in1007.1 mb 0.00 in0.0 mm 0.00 in0.0 mm 0.00 in0.0 mm
01:02 AM 60.3°F15.7°C 49.7°F9.8°C 68% 14.0 mph N22.5 kmh N 19.8 mph31.9 kmh 29.75 in1007.5 mb 0.00 in0.0 mm 0.00 in0.0 mm 0.00 in0.0 mm
01:01 AM 60.3°F15.7°C 49.7°F9.8°C 68% 12.8 mph N20.6 kmh N 19.8 mph31.9 kmh 29.75 in1007.5 mb 0.00 in0.0 mm 0.00 in0.0 mm 0.00 in0.0 mm
01:00 AM 60.3°F15.7°C 49.7°F9.8°C 68% 9.9 mph N15.9 kmh N 17.7 mph28.5 kmh 29.75 in1007.5 mb 0.00 in0.0 mm 0.00 in0.0 mm 0.00 in0.0 mm
12:59 AM 60.3°F15.7°C 49.7°F9.8°C 68% 7.0 mph N11.3 kmh N 17.7 mph28.5 kmh 29.75 in1007.5 mb 0.00 in0.0 mm 0.00 in0.0 mm 0.00 in0.0 mm
12:58 AM 60.3°F15.7°C 49.7°F9.8°C 68% 10.8 mph NNE17.4 kmh NNE 20.6 mph33.2 kmh 29.75 in1007.5 mb 0.00 in0.0 mm 0.00 in0.0 mm 0.00 in0.0 mm
12:57 AM 60.3°F15.7°C 49.7°F9.8°C 68% 7.0 mph N11.3 kmh N 20.6 mph33.2 kmh 29.75 in1007.5 mb 0.00 in0.0 mm 0.00 in0.0 mm 0.00 in0.0 mm
12:56 AM 60.3°F15.7°C 49.7°F9.8°C 68% 9.0 mph N14.5 kmh N 20.6 mph33.2 kmh 29.75 in1007.5 mb 0.00 in0.0 mm 0.00 in0.0 mm 0.00 in0.0 mm
12:55 AM 60.3°F15.7°C 49.7°F9.8°C 68% 7.9 mph NNE12.7 kmh NNE 20.6 mph33.2 kmh 29.75 in1007.5 mb 0.00 in0.0 mm 0.00 in0.0 mm 0.00 in0.0 mm
12:54 AM 60.3°F15.7°C 50.1°F10.1°C 69% 9.9 mph NNE15.9 kmh NNE 20.6 mph33.2 kmh 29.75 in1007.5 mb 0.00 in0.0 mm 0.00 in0.0 mm 0.00 in0.0 mm
12:53 AM 60.1°F15.6°C 49.9°F9.9°C 69% 9.0 mph NNE14.5 kmh NNE 20.6 mph33.2 kmh 29.75 in1007.5 mb 0.00 in0.0 mm 0.00 in0.0 mm 0.00 in0.0 mm
12:52 AM 60.1°F15.6°C 49.9°F9.9°C 69% 11.9 mph NNE19.2 kmh NNE 20.6 mph33.2 kmh 29.75 in1007.5 mb 0.00 in0.0 mm 0.00 in0.0 mm 0.00 in0.0 mm
12:51 AM 60.1°F15.6°C 49.9°F9.9°C 69% 11.9 mph NNE19.2 kmh NNE 20.6 mph33.2 kmh 29.75 in1007.5 mb 0.00 in0.0 mm 0.00 in0.0 mm 0.00 in0.0 mm
12:50 AM 60.1°F15.6°C 49.9°F9.9°C 69% 12.8 mph NNE20.6 kmh NNE 20.6 mph33.2 kmh 29.75 in1007.5 mb 0.00 in0.0 mm 0.00 in0.0 mm 0.00 in0.0 mm
12:49 AM 59.9°F15.5°C 50.1°F10.1°C 70% 10.8 mph NNE17.4 kmh NNE 20.6 mph33.2 kmh 29.75 in1007.5 mb 0.00 in0.0 mm 0.00 in0.0 mm 0.00 in0.0 mm
12:48 AM 59.9°F15.5°C 50.1°F10.1°C 70% 9.0 mph NNE14.5 kmh NNE 19.8 mph31.9 kmh 29.75 in1007.5 mb 0.00 in0.0 mm 0.00 in0.0 mm 0.00 in0.0 mm
12:47 AM 59.9°F15.5°C 50.1°F10.1°C 70% 9.0 mph NNE14.5 kmh NNE 19.8 mph31.9 kmh 29.75 in1007.5 mb 0.00 in0.0 mm 0.00 in0.0 mm 0.00 in0.0 mm
12:46 AM 59.9°F15.5°C 50.1°F10.1°C 70% 10.8 mph NNE17.4 kmh NNE 19.8 mph31.9 kmh 29.75 in1007.5 mb 0.00 in0.0 mm 0.00 in0.0 mm 0.00 in0.0 mm
12:45 AM 59.7°F15.4°C 49.9°F9.9°C 70% 9.9 mph NNE15.9 kmh NNE 17.7 mph28.5 kmh 29.75 in1007.5 mb 0.00 in0.0 mm 0.00 in0.0 mm 0.00 in0.0 mm
12:44 AM 59.7°F15.4°C 49.9°F9.9°C 70% 9.0 mph NE14.5 kmh NE 17.7 mph28.5 kmh 29.75 in1007.5 mb 0.00 in0.0 mm 0.00 in0.0 mm 0.00 in0.0 mm
12:43 AM 59.7°F15.4°C 49.9°F9.9°C 70% 9.0 mph NE14.5 kmh NE 17.7 mph28.5 kmh 29.75 in1007.5 mb 0.00 in0.0 mm 0.00 in0.0 mm 0.00 in0.0 mm
12:42 AM 59.7°F15.4°C 49.9°F9.9°C 70% 9.9 mph NE15.9 kmh NE 17.7 mph28.5 kmh 29.75 in1007.5 mb 0.00 in0.0 mm 0.00 in0.0 mm 0.00 in0.0 mm
12:41 AM 59.7°F15.4°C 49.9°F9.9°C 70% 7.0 mph NE11.3 kmh NE 17.7 mph28.5 kmh 29.75 in1007.5 mb 0.00 in0.0 mm 0.00 in0.0 mm 0.00 in0.0 mm
12:40 AM 59.7°F15.4°C 49.9°F9.9°C 70% 7.9 mph NNE12.7 kmh NNE 17.7 mph28.5 kmh 29.75 in1007.5 mb 0.00 in0.0 mm 0.00 in0.0 mm 0.00 in0.0 mm
12:39 AM 59.7°F15.4°C 49.9°F9.9°C 70% 5.8 mph NNE9.3 kmh NNE 17.7 mph28.5 kmh 29.75 in1007.5 mb 0.00 in0.0 mm 0.00 in0.0 mm 0.00 in0.0 mm
12:38 AM 59.7°F15.4°C 49.9°F9.9°C 70% 9.0 mph NNE14.5 kmh NNE 17.7 mph28.5 kmh 29.75 in1007.5 mb 0.00 in0.0 mm 0.00 in0.0 mm 0.00 in0.0 mm
12:37 AM 59.7°F15.4°C 49.9°F9.9°C 70% 7.0 mph NNE11.3 kmh NNE 17.7 mph28.5 kmh 29.75 in1007.5 mb 0.00 in0.0 mm 0.00 in0.0 mm 0.00 in0.0 mm
12:36 AM 59.7°F15.4°C 49.9°F9.9°C 70% 9.0 mph NNE14.5 kmh NNE 17.7 mph28.5 kmh 29.75 in1007.5 mb 0.00 in0.0 mm 0.00 in0.0 mm 0.00 in0.0 mm
12:35 AM 59.7°F15.4°C 49.9°F9.9°C 70% 9.0 mph NNE14.5 kmh NNE 17.7 mph28.5 kmh 29.75 in1007.5 mb 0.00 in0.0 mm 0.00 in0.0 mm 0.00 in0.0 mm
12:34 AM 59.7°F15.4°C 49.9°F9.9°C 70% 10.8 mph NNE17.4 kmh NNE 17.7 mph28.5 kmh 29.75 in1007.5 mb 0.00 in0.0 mm 0.00 in0.0 mm 0.00 in0.0 mm
12:33 AM 59.7°F15.4°C 49.9°F9.9°C 70% 9.9 mph NNE15.9 kmh NNE 17.7 mph28.5 kmh 29.75 in1007.5 mb 0.00 in0.0 mm 0.00 in0.0 mm 0.00 in0.0 mm
12:32 AM 59.5°F15.3°C 49.8°F9.9°C 70% 9.0 mph N14.5 kmh N 17.7 mph28.5 kmh 29.75 in1007.5 mb 0.00 in0.0 mm 0.00 in0.0 mm 0.00 in0.0 mm
12:31 AM 59.5°F15.3°C 49.8°F9.9°C 70% 9.9 mph N15.9 kmh N 17.7 mph28.5 kmh 29.76 in1007.8 mb 0.00 in0.0 mm 0.00 in0.0 mm 0.00 in0.0 mm
12:30 AM 59.5°F15.3°C 49.8°F9.9°C 70% 12.8 mph N20.6 kmh N 17.7 mph28.5 kmh 29.75 in1007.5 mb 0.00 in0.0 mm 0.00 in0.0 mm 0.00 in0.0 mm
12:29 AM 59.5°F15.3°C 49.8°F9.9°C 70% 7.0 mph N11.3 kmh N 17.7 mph28.5 kmh 29.75 in1007.5 mb 0.00 in0.0 mm 0.00 in0.0 mm 0.00 in0.0 mm
12:28 AM 59.5°F15.3°C 49.8°F9.9°C 70% 7.9 mph N12.7 kmh N 17.7 mph28.5 kmh 29.75 in1007.5 mb 0.00 in0.0 mm 0.00 in0.0 mm 0.00 in0.0 mm
12:27 AM 59.5°F15.3°C 49.8°F9.9°C 70% 7.0 mph N11.3 kmh N 17.7 mph28.5 kmh 29.75 in1007.5 mb 0.00 in0.0 mm 0.00 in0.0 mm 0.00 in0.0 mm
12:26 AM 59.5°F15.3°C 49.8°F9.9°C 70% 5.8 mph N9.3 kmh N 17.7 mph28.5 kmh 29.75 in1007.5 mb 0.00 in0.0 mm 0.00 in0.0 mm 0.00 in0.0 mm
12:25 AM 59.5°F15.3°C 49.8°F9.9°C 70% 7.0 mph N11.3 kmh N 17.7 mph28.5 kmh 29.75 in1007.5 mb 0.00 in0.0 mm 0.00 in0.0 mm 0.00 in0.0 mm
12:24 AM 59.5°F15.3°C 49.8°F9.9°C 70% 9.9 mph N15.9 kmh N 17.7 mph28.5 kmh 29.75 in1007.5 mb 0.00 in0.0 mm 0.00 in0.0 mm 0.00 in0.0 mm
12:23 AM 59.5°F15.3°C 49.8°F9.9°C 70% 7.0 mph N11.3 kmh N 17.7 mph28.5 kmh 29.75 in1007.5 mb 0.00 in0.0 mm 0.00 in0.0 mm 0.00 in0.0 mm
12:22 AM 59.5°F15.3°C 49.8°F9.9°C 70% 9.9 mph N15.9 kmh N 17.7 mph28.5 kmh 29.75 in1007.5 mb 0.00 in0.0 mm 0.00 in0.0 mm 0.00 in0.0 mm
12:21 AM 59.5°F15.3°C 49.8°F9.9°C 70% 7.9 mph N12.7 kmh N 17.7 mph28.5 kmh 29.75 in1007.5 mb 0.00 in0.0 mm 0.00 in0.0 mm 0.00 in0.0 mm
12:20 AM 59.5°F15.3°C 49.8°F9.9°C 70% 7.9 mph N12.7 kmh N 17.7 mph28.5 kmh 29.75 in1007.5 mb 0.00 in0.0 mm 0.00 in0.0 mm 0.00 in0.0 mm
12:19 AM 59.5°F15.3°C 49.8°F9.9°C 70% 12.8 mph N20.6 kmh N 17.7 mph28.5 kmh 29.75 in1007.5 mb 0.00 in0.0 mm 0.00 in0.0 mm 0.00 in0.0 mm
12:18 AM 59.5°F15.3°C 49.8°F9.9°C 70% 9.0 mph N14.5 kmh N 15.7 mph25.3 kmh 29.75 in1007.5 mb 0.00 in0.0 mm 0.00 in0.0 mm 0.00 in0.0 mm
12:17 AM 59.5°F15.3°C 49.8°F9.9°C 70% 4.9 mph N7.9 kmh N 14.8 mph23.8 kmh 29.75 in1007.5 mb 0.00 in0.0 mm 0.00 in0.0 mm 0.00 in0.0 mm
12:16 AM 59.5°F15.3°C 49.8°F9.9°C 70% 5.8 mph N9.3 kmh N 14.8 mph23.8 kmh 29.75 in1007.5 mb 0.00 in0.0 mm 0.00 in0.0 mm 0.00 in0.0 mm
12:15 AM 59.5°F15.3°C 49.8°F9.9°C 70% 7.0 mph N11.3 kmh N 18.9 mph30.4 kmh 29.75 in1007.5 mb 0.00 in0.0 mm 0.00 in0.0 mm 0.00 in0.0 mm
12:14 AM 59.5°F15.3°C 49.8°F9.9°C 70% 5.8 mph N9.3 kmh N 18.9 mph30.4 kmh 29.75 in1007.5 mb 0.00 in0.0 mm 0.00 in0.0 mm 0.00 in0.0 mm
12:13 AM 59.7°F15.4°C 49.9°F9.9°C 70% 5.8 mph N9.3 kmh N 18.9 mph30.4 kmh 29.75 in1007.5 mb 0.00 in0.0 mm 0.00 in0.0 mm 0.00 in0.0 mm
12:12 AM 59.7°F15.4°C 49.9°F9.9°C 70% 7.0 mph N11.3 kmh N 18.9 mph30.4 kmh 29.75 in1007.5 mb 0.00 in0.0 mm 0.00 in0.0 mm 0.00 in0.0 mm
12:11 AM 59.7°F15.4°C 49.9°F9.9°C 70% 7.9 mph N12.7 kmh N 18.9 mph30.4 kmh 29.75 in1007.5 mb 0.00 in0.0 mm 0.00 in0.0 mm 0.00 in0.0 mm
12:10 AM 59.7°F15.4°C 49.9°F9.9°C 70% 9.0 mph N14.5 kmh N 18.9 mph30.4 kmh 29.75 in1007.5 mb 0.00 in0.0 mm 0.00 in0.0 mm 0.00 in0.0 mm
12:09 AM 59.7°F15.4°C 49.5°F9.7°C 69% 7.0 mph N11.3 kmh N 18.9 mph30.4 kmh 29.75 in1007.5 mb 0.00 in0.0 mm 0.00 in0.0 mm 0.00 in0.0 mm
12:08 AM 59.7°F15.4°C 49.5°F9.7°C 69% 7.0 mph N11.3 kmh N 18.9 mph30.4 kmh 29.75 in1007.5 mb 0.00 in0.0 mm 0.00 in0.0 mm 0.00 in0.0 mm
12:07 AM 59.7°F15.4°C 49.5°F9.7°C 69% 10.8 mph N17.4 kmh N 18.9 mph30.4 kmh 29.75 in1007.5 mb 0.00 in0.0 mm 0.00 in0.0 mm 0.00 in0.0 mm
12:06 AM 59.7°F15.4°C 49.5°F9.7°C 69% 7.9 mph N12.7 kmh N 18.9 mph30.4 kmh 29.75 in1007.5 mb 0.00 in0.0 mm 0.00 in0.0 mm 0.00 in0.0 mm
12:05 AM 59.7°F15.4°C 49.5°F9.7°C 69% 7.9 mph NNE12.7 kmh NNE 15.7 mph25.3 kmh 29.75 in1007.5 mb 0.00 in0.0 mm 0.00 in0.0 mm 0.00 in0.0 mm
12:04 AM 59.7°F15.4°C 49.2°F9.6°C 68% 9.0 mph N14.5 kmh N 15.7 mph25.3 kmh 29.75 in1007.5 mb 0.00 in0.0 mm 0.00 in0.0 mm 0.00 in0.0 mm
12:03 AM 59.7°F15.4°C 49.2°F9.6°C 68% 7.9 mph N12.7 kmh N 16.9 mph27.2 kmh 29.75 in1007.5 mb 0.00 in0.0 mm 0.00 in0.0 mm 0.00 in0.0 mm
12:02 AM 59.9°F15.5°C 49.3°F9.6°C 68% 4.9 mph N7.9 kmh N 17.7 mph28.5 kmh 29.75 in1007.5 mb 0.00 in0.0 mm 0.00 in0.0 mm 0.00 in0.0 mm
12:01 AM 59.9°F15.5°C 49.3°F9.6°C 68% 4.9 mph NNE7.9 kmh NNE 17.7 mph28.5 kmh 29.75 in1007.5 mb 0.00 in0.0 mm 0.00 in0.0 mm 0.00 in0.0 mm
12:00 AM 59.9°F15.5°C 49.3°F9.6°C 68% 9.9 mph NNE15.9 kmh NNE 17.7 mph28.5 kmh 29.75 in1007.5 mb 0.00 in0.0 mm 0.00 in0.0 mm 0.00 in0.0 mm